createdAt,value
2024-03-08T00:03:02.000Z,114.56
2024-03-08T00:08:03.000Z,111.13
2024-03-08T00:13:02.000Z,111.76
2024-03-08T00:18:02.000Z,117.84
2024-03-08T00:23:02.000Z,115.97
2024-03-08T00:28:02.000Z,120.64
2024-03-08T00:33:01.000Z,118.55
2024-03-08T00:38:02.000Z,118.55
2024-03-08T00:43:02.000Z,119.91
2024-03-08T00:48:02.000Z,122.2
2024-03-08T00:53:02.000Z,118
2024-03-08T00:58:02.000Z,116.6
2024-03-08T01:03:03.000Z,130.25
2024-03-08T01:08:03.000Z,131.11
2024-03-08T01:13:02.000Z,132.62
2024-03-08T01:18:02.000Z,129.88
2024-03-08T01:23:02.000Z,131
2024-03-08T01:28:01.000Z,130.43
2024-03-08T01:33:02.000Z,128.5
2024-03-08T01:38:02.000Z,128.56
2024-03-08T01:43:02.000Z,129.94
2024-03-08T01:48:02.000Z,134.55
2024-03-08T01:53:02.000Z,126.44
2024-03-08T01:58:03.000Z,126.34
2024-03-08T02:03:03.000Z,138.45
2024-03-08T02:08:02.000Z,138.45
2024-03-08T02:13:01.000Z,153.83
2024-03-08T02:18:02.000Z,150.58
2024-03-08T02:23:02.000Z,146.01
2024-03-08T02:28:02.000Z,132.66
2024-03-08T02:33:03.000Z,127.86
2024-03-08T02:38:02.000Z,126.53
2024-03-08T02:43:02.000Z,128.87
2024-03-08T02:48:02.000Z,127.49
2024-03-08T02:53:01.000Z,128.23
2024-03-08T02:58:02.000Z,128.42
2024-03-08T03:03:03.000Z,127.01
2024-03-08T03:08:03.000Z,124.45
2024-03-08T03:13:02.000Z,125.45
2024-03-08T03:18:02.000Z,125.95
2024-03-08T03:23:02.000Z,122.53
2024-03-08T03:28:02.000Z,122.08
2024-03-08T03:33:02.000Z,122.08
2024-03-08T03:38:03.000Z,118.39
2024-03-08T03:43:03.000Z,117.7
2024-03-08T03:48:02.000Z,114.78
2024-03-08T03:53:02.000Z,115.4
2024-03-08T03:58:02.000Z,115.27
2024-03-08T04:03:02.000Z,112.84
2024-03-08T04:08:03.000Z,112.27
2024-03-08T04:13:02.000Z,111.94
2024-03-08T04:18:02.000Z,110.52
2024-03-08T04:23:02.000Z,112.01
2024-03-08T04:28:02.000Z,111.8
2024-03-08T04:33:02.000Z,110.71
2024-03-08T04:38:02.000Z,114.66
2024-03-08T04:43:02.000Z,102.93
2024-03-08T04:48:02.000Z,122.49
2024-03-08T04:53:02.000Z,125.97
2024-03-08T04:58:03.000Z,125.97
2024-03-08T05:03:02.000Z,123.7
2024-03-08T05:08:03.000Z,113.44
2024-03-08T05:13:02.000Z,112.8
2024-03-08T05:18:03.000Z,103.5
2024-03-08T05:23:02.000Z,86.82
2024-03-08T05:28:02.000Z,77.98
2024-03-08T05:33:02.000Z,81.29
2024-03-08T05:38:02.000Z,74.05
2024-03-08T05:43:02.000Z,74.98
2024-03-08T05:48:02.000Z,86.52
2024-03-08T05:53:02.000Z,94.56
2024-03-08T05:58:02.000Z,91.87
2024-03-08T06:03:02.000Z,93.49
2024-03-08T06:08:03.000Z,89.43
2024-03-08T06:13:03.000Z,89.43
2024-03-08T06:18:02.000Z,89.09
2024-03-08T06:23:03.000Z,83.56
2024-03-08T06:28:02.000Z,77.87
2024-03-08T06:33:02.000Z,81.61
2024-03-08T06:38:02.000Z,81.61
2024-03-08T06:43:02.000Z,84.64
2024-03-08T06:48:02.000Z,87.2
2024-03-08T06:53:02.000Z,88.18
2024-03-08T06:58:02.000Z,84.7
2024-03-08T07:03:02.000Z,82.65
2024-03-08T07:08:02.000Z,81.14
2024-03-08T07:13:02.000Z,69.9
2024-03-08T07:18:02.000Z,69.2
2024-03-08T07:23:02.000Z,67.63
2024-03-08T07:28:02.000Z,71.31
2024-03-08T07:33:03.000Z,71.31
2024-03-08T07:38:03.000Z,62.9
2024-03-08T07:43:02.000Z,59.94
2024-03-08T07:48:03.000Z,55.38
2024-03-08T07:53:02.000Z,48.58
2024-03-08T07:58:03.000Z,46.6
2024-03-08T08:03:02.000Z,43.26
2024-03-08T08:08:02.000Z,40.55
2024-03-08T08:13:02.000Z,40.55
2024-03-08T08:23:03.000Z,37.36
2024-03-08T08:28:03.000Z,33.65
2024-03-08T08:33:03.000Z,33.02
2024-03-08T08:38:03.000Z,32.04
2024-03-08T08:43:03.000Z,32.93
2024-03-08T08:48:03.000Z,34.04
2024-03-08T08:53:03.000Z,27.81
2024-03-08T08:58:03.000Z,28.08
2024-03-08T09:03:02.000Z,28.15
2024-03-08T09:08:02.000Z,28.15
2024-03-08T09:13:02.000Z,25.64
2024-03-08T09:18:03.000Z,24.67
2024-03-08T09:23:02.000Z,23.74
2024-03-08T09:28:03.000Z,21.24
2024-03-08T09:33:02.000Z,21.24
2024-03-08T09:43:03.000Z,20.89
2024-03-08T09:48:03.000Z,21.83
2024-03-08T09:53:02.000Z,19.68
2024-03-08T09:58:03.000Z,21.43
2024-03-08T10:03:03.000Z,23.61
2024-03-08T10:08:03.000Z,23.54
2024-03-08T10:13:02.000Z,24.81
2024-03-08T10:18:02.000Z,24.81
2024-03-08T10:23:02.000Z,24.16
2024-03-08T10:28:02.000Z,25.78
2024-03-08T10:33:02.000Z,26.9
2024-03-08T10:38:03.000Z,25.95
2024-03-08T10:43:02.000Z,25.25
2024-03-08T10:48:03.000Z,26.06
2024-03-08T10:53:02.000Z,24.9
2024-03-08T10:58:02.000Z,30.76
2024-03-08T11:03:02.000Z,32.61
2024-03-08T11:08:02.000Z,38.72
2024-03-08T11:13:02.000Z,49.06
2024-03-08T11:18:03.000Z,55.31
2024-03-08T11:23:02.000Z,63.45
2024-03-08T11:28:02.000Z,62.62
2024-03-08T11:33:01.000Z,57.94
2024-03-08T11:38:02.000Z,60.04
2024-03-08T11:43:02.000Z,60.04
2024-03-08T11:48:03.000Z,63.23
2024-03-08T11:53:03.000Z,66.08
2024-03-08T11:58:02.000Z,68.78
2024-03-08T12:03:03.000Z,75.37
2024-03-08T12:08:02.000Z,69.52
2024-03-08T12:13:02.000Z,68.86
2024-03-08T12:18:02.000Z,69.84
2024-03-08T12:23:01.000Z,70.34
2024-03-08T12:28:03.000Z,71.59
2024-03-08T12:33:02.000Z,75.18
2024-03-08T12:38:02.000Z,78.53
2024-03-08T12:43:03.000Z,89.24
2024-03-08T12:48:03.000Z,89.24
2024-03-08T13:03:03.000Z,88.29
2024-03-08T13:08:03.000Z,110.63
2024-03-08T13:13:03.000Z,118.12
2024-03-08T13:18:02.000Z,135.76
2024-03-08T13:23:03.000Z,150.78
2024-03-08T13:28:02.000Z,152.17
2024-03-08T13:33:02.000Z,145.09
2024-03-08T13:38:03.000Z,145.01
2024-03-08T13:43:03.000Z,144.42
2024-03-08T13:48:03.000Z,150.39
2024-03-08T13:53:02.000Z,149.43
2024-03-08T13:58:03.000Z,141.64
2024-03-08T14:03:03.000Z,145.14
2024-03-08T14:08:03.000Z,136.83
2024-03-08T14:13:02.000Z,136.83
2024-03-08T14:18:02.000Z,143.03
2024-03-08T14:23:02.000Z,154.15
2024-03-08T14:28:03.000Z,166.62
2024-03-08T14:33:02.000Z,165.9
2024-03-08T14:38:02.000Z,189.19
2024-03-08T14:43:03.000Z,218.64
2024-03-08T14:48:03.000Z,216.81
2024-03-08T14:53:03.000Z,204.43
2024-03-08T14:58:02.000Z,194.62
2024-03-08T15:03:03.000Z,169.38
2024-03-08T15:08:03.000Z,156.75
2024-03-08T15:13:02.000Z,164.93
2024-03-08T15:18:02.000Z,167.09
2024-03-08T15:23:02.000Z,160.17
2024-03-08T15:28:02.000Z,155.83
2024-03-08T15:33:02.000Z,155.83
2024-03-08T15:38:03.000Z,149.31
2024-03-08T15:43:03.000Z,141.54
2024-03-08T15:48:03.000Z,132.17
2024-03-08T15:53:03.000Z,128.9
2024-03-08T15:58:02.000Z,127.61
2024-03-08T16:03:03.000Z,126.07
2024-03-08T16:08:02.000Z,143.54
2024-03-08T16:13:02.000Z,185.75
2024-03-08T16:18:03.000Z,166.55
2024-03-08T16:23:02.000Z,170.1
2024-03-08T16:28:03.000Z,155.91
2024-03-08T16:33:03.000Z,153.11
2024-03-08T16:38:03.000Z,152.58
2024-03-08T16:43:03.000Z,150.55
2024-03-08T16:48:02.000Z,152.52
2024-03-08T16:53:02.000Z,171.8
2024-03-08T16:58:02.000Z,171.8
2024-03-08T17:03:02.000Z,194
2024-03-08T17:08:02.000Z,193.44
2024-03-08T17:13:02.000Z,191.27
2024-03-08T17:18:02.000Z,196.28
2024-03-08T17:23:02.000Z,208.88
2024-03-08T17:28:02.000Z,190.56
2024-03-08T17:33:03.000Z,172.13
2024-03-08T17:38:02.000Z,171.87
2024-03-08T17:43:01.000Z,154.93
2024-03-08T17:48:02.000Z,153.86
2024-03-08T17:53:03.000Z,151.65
2024-03-08T17:58:02.000Z,151.65
2024-03-08T18:03:03.000Z,151.66
2024-03-08T18:08:02.000Z,147.19
2024-03-08T18:13:02.000Z,150.02
2024-03-08T18:18:02.000Z,138.22
2024-03-08T18:23:02.000Z,140.03
2024-03-08T18:28:02.000Z,136.48
2024-03-08T18:33:03.000Z,125.79
2024-03-08T18:38:03.000Z,123.6
2024-03-08T18:43:03.000Z,121.36
2024-03-08T18:48:03.000Z,114.09
2024-03-08T18:53:03.000Z,118.41
2024-03-08T18:58:02.000Z,129.65
2024-03-08T19:03:02.000Z,133.11
2024-03-08T19:08:03.000Z,119.86
2024-03-08T19:13:03.000Z,119.86
2024-03-08T19:18:02.000Z,122.59
2024-03-08T19:23:02.000Z,125.34
2024-03-08T19:28:02.000Z,126.11
2024-03-08T19:33:02.000Z,223.54
2024-03-08T19:38:02.000Z,146.21
2024-03-08T19:43:03.000Z,113.94
2024-03-08T19:48:03.000Z,134.43
2024-03-08T19:53:02.000Z,135.69
2024-03-08T19:58:03.000Z,142.74
2024-03-08T20:03:02.000Z,147.89
2024-03-08T20:08:02.000Z,144.41
2024-03-08T20:13:02.000Z,152.8
2024-03-08T20:18:03.000Z,154.7
2024-03-08T20:23:03.000Z,133.65
2024-03-08T20:28:03.000Z,114.17
2024-03-08T20:33:02.000Z,132.35
2024-03-08T20:38:02.000Z,132.35
2024-03-08T20:43:02.000Z,216.28
2024-03-08T20:48:02.000Z,142.68
2024-03-08T20:53:03.000Z,131.74
2024-03-08T20:58:03.000Z,111.66
2024-03-08T21:03:03.000Z,103.68
2024-03-08T21:08:02.000Z,91.3
2024-03-08T21:13:02.000Z,87.28
2024-03-08T21:18:02.000Z,95.3
2024-03-08T21:23:02.000Z,108.67
2024-03-08T21:28:03.000Z,108.72
2024-03-08T21:33:03.000Z,108.72
2024-03-08T21:38:03.000Z,108.56
2024-03-08T21:43:02.000Z,100.89
2024-03-08T21:48:02.000Z,105.32
2024-03-08T21:53:02.000Z,97.59
2024-03-08T21:58:02.000Z,103.33
2024-03-08T22:03:02.000Z,108.99
2024-03-08T22:08:02.000Z,113
2024-03-08T22:13:03.000Z,118.88
2024-03-08T22:18:02.000Z,114.46
2024-03-08T22:23:02.000Z,110.53
2024-03-08T22:28:02.000Z,127.44
2024-03-08T22:33:02.000Z,140.03
2024-03-08T22:38:02.000Z,135.1
2024-03-08T22:43:02.000Z,144.14
2024-03-08T22:48:02.000Z,146.16
2024-03-08T22:53:02.000Z,141.66
2024-03-08T22:58:02.000Z,135.53
2024-03-08T23:03:01.000Z,135.53
2024-03-08T23:08:01.000Z,133.5
2024-03-08T23:13:02.000Z,139.16
2024-03-08T23:18:02.000Z,137.35
2024-03-08T23:23:03.000Z,137.07
2024-03-08T23:28:03.000Z,137.22
2024-03-08T23:33:02.000Z,140.22
2024-03-08T23:38:02.000Z,135.83
2024-03-08T23:43:02.000Z,140.41
2024-03-08T23:48:02.000Z,134.63
2024-03-08T23:53:02.000Z,134.28
2024-03-08T23:58:03.000Z,136.6
